createdAt,value
2019-03-27T00:00:43.528Z,85.22
2019-03-27T00:01:34.088Z,85.16
2019-03-27T00:02:34.079Z,85.26
2019-03-27T00:03:34.071Z,85.47
2019-03-27T00:04:34.048Z,85.26
2019-03-27T00:05:34.070Z,85.26
2019-03-27T00:06:34.027Z,85.26
2019-03-27T00:07:34.025Z,85.05
2019-03-27T00:08:34.023Z,85.11
2019-03-27T00:09:33.998Z,85.16
2019-03-27T00:10:34.032Z,84.81
2019-03-27T00:11:33.984Z,85.26
2019-03-27T00:12:33.981Z,84.95
2019-03-27T00:13:33.971Z,85.16
2019-03-27T00:14:33.971Z,84.81
2019-03-27T00:15:34.074Z,84.50
2019-03-27T00:16:33.938Z,84.84
2019-03-27T00:17:33.923Z,84.84
2019-03-27T00:18:33.914Z,84.29
2019-03-27T00:19:33.905Z,84.70
2019-03-27T00:20:33.939Z,84.50
2019-03-27T00:21:33.880Z,84.70
2019-03-27T00:22:33.878Z,85.11
2019-03-27T00:23:33.873Z,84.95
2019-03-27T00:24:33.846Z,84.70
2019-03-27T00:25:33.864Z,85.05
2019-03-27T00:26:33.824Z,84.39
2019-03-27T00:27:33.815Z,84.50
2019-03-27T00:28:33.797Z,84.50
2019-03-27T00:29:33.801Z,84.95
2019-03-27T00:30:33.808Z,84.70
2019-03-27T00:31:33.775Z,84.74
2019-03-27T00:32:33.761Z,84.95
2019-03-27T00:33:33.763Z,84.70
2019-03-27T00:34:33.744Z,85.05
2019-03-27T00:35:33.770Z,84.64
2019-03-27T00:36:33.730Z,85.02
2019-03-27T00:37:33.708Z,85.22
2019-03-27T00:38:33.743Z,85.47
2019-03-27T00:39:33.697Z,85.36
2019-03-27T00:40:33.706Z,85.78
2019-03-27T00:41:33.681Z,85.78
2019-03-27T00:42:33.666Z,85.78
2019-03-27T00:43:33.642Z,85.57
2019-03-27T00:44:33.632Z,85.74
2019-03-27T00:45:33.648Z,85.78
2019-03-27T00:46:33.624Z,86.19
2019-03-27T00:47:33.606Z,86.19
2019-03-27T00:48:33.594Z,86.19
2019-03-27T00:49:33.573Z,86.19
2019-03-27T00:50:33.600Z,85.99
2019-03-27T00:51:33.563Z,86.19
2019-03-27T00:52:33.547Z,86.09
2019-03-27T00:53:33.551Z,86.09
2019-03-27T00:54:33.539Z,86.19
2019-03-27T00:55:33.552Z,86.15
2019-03-27T00:56:33.516Z,86.19
2019-03-27T00:57:33.491Z,86.50
2019-03-27T00:58:33.490Z,86.50
2019-03-27T00:59:33.480Z,86.50
2019-03-27T01:00:33.500Z,86.29
2019-03-27T01:01:33.444Z,86.60
2019-03-27T01:02:33.435Z,86.40
2019-03-27T01:03:33.464Z,86.40
2019-03-27T01:04:33.424Z,86.77
2019-03-27T01:05:33.426Z,86.91
2019-03-27T01:06:33.386Z,87.02
2019-03-27T01:07:33.380Z,86.91
2019-03-27T01:08:33.385Z,87.12
2019-03-27T01:09:33.357Z,86.67
2019-03-27T01:10:33.388Z,87.33
2019-03-27T01:11:33.337Z,87.02
2019-03-27T01:12:33.396Z,87.02
2019-03-27T01:13:33.320Z,86.91
2019-03-27T01:14:33.310Z,86.91
2019-03-27T01:15:39.799Z,87.02
2019-03-27T01:16:34.298Z,87.23
2019-03-27T01:17:33.289Z,88.16
2019-03-27T01:18:33.261Z,87.64
2019-03-27T01:19:33.257Z,87.43
2019-03-27T01:20:33.273Z,87.33
2019-03-27T01:21:33.239Z,87.95
2019-03-27T01:22:33.223Z,87.78
2019-03-27T01:23:33.210Z,87.64
2019-03-27T01:24:33.197Z,88.26
2019-03-27T01:25:33.225Z,88.30
2019-03-27T01:26:33.173Z,88.46
2019-03-27T01:27:35.610Z,89.34
2019-03-27T01:28:33.159Z,89.44
2019-03-27T01:29:33.140Z,89.19
2019-03-27T01:30:33.169Z,89.13
2019-03-27T01:31:33.121Z,89.13
2019-03-27T01:32:33.121Z,88.92
2019-03-27T01:33:33.104Z,89.34
2019-03-27T01:34:33.092Z,89.03
2019-03-27T01:35:33.136Z,89.44
2019-03-27T01:36:33.069Z,89.75
2019-03-27T01:37:33.059Z,89.34
2019-03-27T01:38:33.043Z,89.34
2019-03-27T01:39:33.051Z,89.34
2019-03-27T01:40:33.063Z,89.86
2019-03-27T01:41:33.020Z,89.86
2019-03-27T01:42:33.013Z,89.54
2019-03-27T01:43:33.000Z,89.54
2019-03-27T01:44:32.980Z,89.75
2019-03-27T01:45:33.013Z,90.10
2019-03-27T01:46:32.957Z,90.41
2019-03-27T01:47:32.945Z,90.83
2019-03-27T01:48:32.943Z,90.93
2019-03-27T01:49:32.935Z,90.72
2019-03-27T01:50:32.947Z,90.41
2019-03-27T01:51:32.919Z,90.83
2019-03-27T01:52:32.896Z,90.93
2019-03-27T01:53:32.890Z,91.18
2019-03-27T01:54:32.886Z,91.14
2019-03-27T01:55:32.870Z,90.66
2019-03-27T01:56:32.882Z,91.08
2019-03-27T01:57:32.866Z,91.18
2019-03-27T01:58:32.882Z,91.39
2019-03-27T01:59:32.823Z,91.49
2019-03-27T02:00:32.811Z,91.14
2019-03-27T02:01:32.837Z,91.24
2019-03-27T02:02:32.793Z,91.45
2019-03-27T02:03:32.787Z,90.83
2019-03-27T02:04:32.767Z,90.62
2019-03-27T02:05:32.756Z,91.24
2019-03-27T02:06:32.835Z,91.24
2019-03-27T02:07:32.730Z,91.14
2019-03-27T02:08:32.801Z,91.24
2019-03-27T02:09:32.732Z,90.83
2019-03-27T02:10:32.702Z,91.24
2019-03-27T02:11:32.729Z,91.24
2019-03-27T02:12:32.677Z,91.03
2019-03-27T02:13:32.674Z,91.14
2019-03-27T02:14:32.660Z,91.20
2019-03-27T02:15:32.654Z,91.03
2019-03-27T02:16:32.675Z,90.47
2019-03-27T02:17:32.630Z,90.83
2019-03-27T02:18:32.614Z,91.24
2019-03-27T02:19:32.613Z,91.03
2019-03-27T02:20:32.599Z,91.03
2019-03-27T02:21:32.619Z,91.24
2019-03-27T02:22:32.578Z,91.14
2019-03-27T02:23:32.559Z,91.55
2019-03-27T02:24:32.558Z,91.66
2019-03-27T02:25:32.542Z,92.11
2019-03-27T02:26:32.562Z,91.49
2019-03-27T02:27:32.527Z,91.76
2019-03-27T02:28:32.522Z,91.60
2019-03-27T02:29:32.493Z,91.80
2019-03-27T02:30:32.613Z,91.70
2019-03-27T02:31:32.509Z,92.01
2019-03-27T02:32:32.479Z,92.22
2019-03-27T02:33:32.459Z,92.22
2019-03-27T02:34:32.446Z,92.74
2019-03-27T02:35:32.433Z,92.94
2019-03-27T02:36:32.453Z,92.94
2019-03-27T02:37:32.438Z,92.84
2019-03-27T02:38:32.430Z,92.74
2019-03-27T02:39:32.397Z,93.19
2019-03-27T02:40:32.384Z,92.43
2019-03-27T02:41:32.408Z,92.94
2019-03-27T02:42:32.366Z,92.57
2019-03-27T02:43:32.351Z,92.94
2019-03-27T02:44:32.338Z,92.84
2019-03-27T02:45:32.364Z,92.43
2019-03-27T02:46:32.346Z,92.36
2019-03-27T02:47:32.305Z,93.29
2019-03-27T02:48:32.317Z,93.25
2019-03-27T02:49:32.283Z,93.04
2019-03-27T02:50:32.271Z,93.25
2019-03-27T02:51:32.280Z,93.04
2019-03-27T02:52:32.260Z,93.25
2019-03-27T02:53:32.237Z,93.15
2019-03-27T02:54:32.241Z,93.46
2019-03-27T02:55:32.211Z,93.25
2019-03-27T02:56:32.247Z,93.35
2019-03-27T02:57:32.201Z,93.15
2019-03-27T02:58:32.178Z,93.04
2019-03-27T02:59:32.176Z,93.56
2019-03-27T03:00:32.165Z,92.84
2019-03-27T03:01:32.177Z,93.50
2019-03-27T03:02:32.144Z,93.50
2019-03-27T03:03:32.128Z,93.29
2019-03-27T03:04:32.114Z,93.60
2019-03-27T03:05:32.121Z,93.40
2019-03-27T03:06:32.129Z,93.60
2019-03-27T03:07:32.089Z,94.23
2019-03-27T03:08:32.092Z,94.23
2019-03-27T03:09:32.061Z,94.43
2019-03-27T03:10:32.055Z,94.58
2019-03-27T03:11:32.067Z,93.71
2019-03-27T03:12:32.033Z,94.02
2019-03-27T03:13:32.016Z,94.06
2019-03-27T03:14:32.022Z,94.17
2019-03-27T03:15:32.002Z,94.06
2019-03-27T03:16:42.314Z,94.06
2019-03-27T03:17:32.971Z,94.37
2019-03-27T03:18:31.967Z,94.48
2019-03-27T03:19:31.953Z,94.43
2019-03-27T03:20:31.944Z,95.00
2019-03-27T03:21:31.963Z,94.23
2019-03-27T03:22:31.939Z,94.74
2019-03-27T03:23:31.916Z,94.17
2019-03-27T03:24:31.904Z,94.43
2019-03-27T03:25:31.965Z,94.79
2019-03-27T03:26:31.908Z,95.16
2019-03-27T03:27:31.864Z,94.48
2019-03-27T03:28:31.865Z,94.79
2019-03-27T03:29:31.862Z,95.62
2019-03-27T03:30:31.837Z,95.10
2019-03-27T03:31:31.876Z,95.20
2019-03-27T03:32:31.818Z,95.31
2019-03-27T03:33:31.818Z,95.00
2019-03-27T03:34:31.809Z,94.79
2019-03-27T03:35:31.813Z,95.10
2019-03-27T03:36:31.827Z,95.31
2019-03-27T03:37:31.763Z,95.56
2019-03-27T03:38:31.754Z,95.87
2019-03-27T03:39:31.780Z,95.77
2019-03-27T03:40:31.734Z,95.77
2019-03-27T03:41:31.757Z,95.77
2019-03-27T03:42:31.710Z,96.39
2019-03-27T03:43:31.708Z,96.33
2019-03-27T03:44:31.690Z,96.33
2019-03-27T03:45:31.687Z,95.87
2019-03-27T03:46:31.714Z,95.81
2019-03-27T03:47:31.656Z,96.54
2019-03-27T03:48:31.648Z,96.02
2019-03-27T03:49:31.637Z,96.54
2019-03-27T03:50:31.618Z,96.23
2019-03-27T03:51:31.642Z,96.54
2019-03-27T03:52:31.624Z,96.64
2019-03-27T03:53:31.590Z,96.48
2019-03-27T03:54:31.586Z,96.54
2019-03-27T03:55:31.566Z,96.75
2019-03-27T03:56:31.608Z,96.79
2019-03-27T03:57:31.578Z,97.16
2019-03-27T03:58:31.536Z,97.16
2019-03-27T03:59:31.524Z,97.06
2019-03-27T04:00:31.523Z,97.00
2019-03-27T04:01:31.534Z,98.03
2019-03-27T04:02:31.506Z,97.68
2019-03-27T04:03:31.494Z,97.68
2019-03-27T04:04:31.463Z,97.64
2019-03-27T04:05:31.459Z,98.05
2019-03-27T04:06:31.518Z,97.58
2019-03-27T04:07:31.436Z,97.64
2019-03-27T04:08:31.443Z,97.02
2019-03-27T04:09:31.464Z,97.47
2019-03-27T04:10:31.427Z,98.05
2019-03-27T04:11:31.441Z,97.95
2019-03-27T04:12:31.384Z,98.05
2019-03-27T04:13:31.379Z,97.12
2019-03-27T04:14:31.376Z,97.43
2019-03-27T04:15:31.359Z,97.85
2019-03-27T04:16:31.391Z,97.90
2019-03-27T04:17:31.337Z,98.00
2019-03-27T04:18:31.320Z,98.00
2019-03-27T04:19:31.313Z,98.11
2019-03-27T04:20:31.339Z,97.38
2019-03-27T04:21:31.319Z,97.38
2019-03-27T04:22:31.296Z,96.76
2019-03-27T04:23:31.292Z,97.28
2019-03-27T04:24:31.253Z,96.97
2019-03-27T04:25:53.871Z,96.97
2019-03-27T04:26:33.652Z,96.92
2019-03-27T04:27:31.239Z,96.82
2019-03-27T04:28:31.221Z,96.92
2019-03-27T04:29:31.208Z,96.86
2019-03-27T04:30:31.206Z,96.86
2019-03-27T04:31:31.218Z,97.44
2019-03-27T04:32:31.203Z,96.72
2019-03-27T04:33:31.170Z,96.92
2019-03-27T04:34:31.152Z,96.82
2019-03-27T04:35:31.138Z,96.92
2019-03-27T04:36:31.157Z,96.51
2019-03-27T04:37:31.119Z,96.72
2019-03-27T04:38:31.150Z,96.72
2019-03-27T04:39:31.169Z,96.51
2019-03-27T04:40:32.064Z,96.72
2019-03-27T04:41:31.227Z,96.41
2019-03-27T04:42:31.215Z,96.20
2019-03-27T04:43:31.095Z,96.41
2019-03-27T04:44:31.171Z,96.30
2019-03-27T04:45:31.997Z,96.30
2019-03-27T04:46:31.998Z,95.99
2019-03-27T04:47:32.285Z,96.20
2019-03-27T04:48:31.008Z,96.51
2019-03-27T04:49:30.992Z,96.51
2019-03-27T04:50:30.973Z,96.20
2019-03-27T04:51:30.992Z,95.89
2019-03-27T04:52:30.959Z,95.99
2019-03-27T04:53:30.942Z,95.99
2019-03-27T04:54:30.931Z,96.20
2019-03-27T04:55:30.931Z,96.41
2019-03-27T04:56:30.941Z,96.51
2019-03-27T04:57:30.904Z,96.41
2019-03-27T04:58:30.884Z,96.09
2019-03-27T04:59:30.888Z,96.09
2019-03-27T05:00:30.893Z,95.99
2019-03-27T05:01:30.884Z,96.20
2019-03-27T05:02:30.907Z,96.14
2019-03-27T05:03:30.832Z,96.41
2019-03-27T05:04:30.823Z,96.20
2019-03-27T05:05:30.816Z,96.20
2019-03-27T05:06:30.834Z,96.30
2019-03-27T05:07:30.797Z,96.03
2019-03-27T05:08:30.788Z,96.55
2019-03-27T05:09:30.772Z,96.55
2019-03-27T05:10:30.757Z,96.24
2019-03-27T05:11:30.779Z,96.41
2019-03-27T05:12:30.744Z,96.76
2019-03-27T05:13:30.733Z,96.34
2019-03-27T05:14:30.713Z,96.76
2019-03-27T05:15:30.704Z,96.66
2019-03-27T05:16:30.717Z,96.66
2019-03-27T05:17:30.695Z,96.76
2019-03-27T05:18:30.681Z,96.76
2019-03-27T05:19:30.668Z,96.97
2019-03-27T05:20:30.655Z,96.76
2019-03-27T05:21:30.676Z,97.07
2019-03-27T05:22:41.608Z,96.86
2019-03-27T05:23:30.642Z,97.07
2019-03-27T05:24:30.633Z,97.38
2019-03-27T05:25:30.576Z,97.80
2019-03-27T05:26:30.629Z,97.69
2019-03-27T05:27:30.556Z,97.80
2019-03-27T05:28:30.554Z,97.49
2019-03-27T05:29:30.543Z,97.49
2019-03-27T05:30:30.530Z,97.86
2019-03-27T05:31:30.546Z,97.86
2019-03-27T05:32:30.549Z,97.34
2019-03-27T05:33:32.720Z,97.65
2019-03-27T05:34:30.483Z,97.86
2019-03-27T05:35:30.476Z,97.65
2019-03-27T05:36:30.498Z,97.55
2019-03-27T05:37:30.464Z,97.13
2019-03-27T05:38:30.441Z,97.75
2019-03-27T05:39:30.435Z,97.34
2019-03-27T05:40:30.423Z,97.65
2019-03-27T05:41:30.449Z,97.65
2019-03-27T05:42:30.401Z,97.55
2019-03-27T05:43:30.389Z,97.55
2019-03-27T05:44:30.377Z,97.75
2019-03-27T05:45:30.366Z,97.55
2019-03-27T05:46:30.385Z,97.65
2019-03-27T05:47:30.358Z,97.34
2019-03-27T05:48:30.335Z,97.75
2019-03-27T05:49:30.328Z,97.86
2019-03-27T05:50:30.315Z,97.86
2019-03-27T05:51:30.329Z,97.91
2019-03-27T05:52:30.291Z,97.96
2019-03-27T05:53:30.276Z,97.96
2019-03-27T05:54:30.267Z,97.44
2019-03-27T05:55:30.254Z,96.78
2019-03-27T05:56:30.281Z,97.44
2019-03-27T05:57:30.234Z,97.44
2019-03-27T05:58:30.224Z,97.13
2019-03-27T05:59:30.213Z,96.92
2019-03-27T06:00:33.281Z,97.86
2019-03-27T06:01:30.222Z,97.86
2019-03-27T06:02:30.191Z,97.39
2019-03-27T06:03:30.174Z,97.50
2019-03-27T06:04:30.158Z,97.44
2019-03-27T06:05:30.149Z,97.65
2019-03-27T06:06:30.160Z,97.55
2019-03-27T06:07:30.126Z,97.75
2019-03-27T06:08:30.120Z,97.60
2019-03-27T06:09:30.103Z,97.55
2019-03-27T06:10:30.114Z,97.60
2019-03-27T06:11:30.111Z,97.81
2019-03-27T06:12:30.079Z,97.39
2019-03-27T06:13:30.061Z,97.50
2019-03-27T06:14:30.060Z,97.39
2019-03-27T06:15:30.039Z,97.50
2019-03-27T06:16:30.058Z,97.71
2019-03-27T06:17:30.026Z,97.29
2019-03-27T06:18:30.006Z,97.29
2019-03-27T06:19:29.997Z,97.91
2019-03-27T06:20:29.985Z,97.29
2019-03-27T06:21:30.001Z,97.19
2019-03-27T06:22:29.964Z,96.67
2019-03-27T06:23:29.954Z,97.19
2019-03-27T06:24:29.937Z,97.13
2019-03-27T06:25:29.932Z,97.39
2019-03-27T06:26:29.952Z,97.29
2019-03-27T06:27:29.909Z,97.81
2019-03-27T06:28:29.903Z,97.29
2019-03-27T06:29:29.896Z,96.92
2019-03-27T06:30:29.873Z,97.09
2019-03-27T06:31:29.888Z,98.02
2019-03-27T06:32:29.861Z,97.39
2019-03-27T06:33:29.847Z,97.09
2019-03-27T06:34:29.840Z,96.88
2019-03-27T06:35:29.829Z,97.09
2019-03-27T06:36:29.850Z,97.39
2019-03-27T06:37:29.802Z,96.78
2019-03-27T06:38:29.790Z,97.09
2019-03-27T06:39:29.777Z,97.45
2019-03-27T06:40:29.777Z,97.14
2019-03-27T06:41:29.791Z,96.94
2019-03-27T06:42:29.744Z,96.73
2019-03-27T06:43:29.732Z,96.36
2019-03-27T06:44:29.724Z,97.09
2019-03-27T06:45:29.712Z,96.78
2019-03-27T06:46:29.737Z,96.98
2019-03-27T06:47:29.691Z,97.91
2019-03-27T06:48:29.687Z,97.77
2019-03-27T06:49:29.673Z,96.62
2019-03-27T06:50:29.649Z,96.42
2019-03-27T06:51:39.428Z,96.73
2019-03-27T06:52:30.633Z,96.31
2019-03-27T06:53:29.621Z,96.31
2019-03-27T06:54:29.622Z,96.42
2019-03-27T06:55:29.609Z,96.94
2019-03-27T06:56:29.611Z,96.31
2019-03-27T06:57:29.592Z,96.27
2019-03-27T06:58:29.582Z,96.17
2019-03-27T06:59:29.565Z,96.17
2019-03-27T07:00:29.640Z,95.59
2019-03-27T07:01:29.570Z,95.86
2019-03-27T07:02:29.667Z,96.17
2019-03-27T07:03:29.531Z,95.03
2019-03-27T07:04:29.518Z,95.14
2019-03-27T07:05:29.534Z,95.03
2019-03-27T07:06:29.595Z,94.98
2019-03-27T07:07:29.495Z,95.29
2019-03-27T07:08:30.176Z,94.98
2019-03-27T07:09:29.480Z,94.01
2019-03-27T07:10:29.471Z,94.12
2019-03-27T07:11:29.517Z,93.87
2019-03-27T07:12:29.441Z,93.97
2019-03-27T07:13:29.437Z,92.93
2019-03-27T07:14:29.519Z,92.79
2019-03-27T07:15:29.610Z,92.68
2019-03-27T07:16:29.638Z,91.96
2019-03-27T07:17:29.408Z,90.68
2019-03-27T07:18:39.590Z,89.86
2019-03-27T07:19:30.436Z,90.43
2019-03-27T07:20:29.426Z,88.37
2019-03-27T07:21:29.844Z,87.65
2019-03-27T07:22:29.408Z,87.50
2019-03-27T07:23:29.346Z,87.98
2019-03-27T07:24:29.319Z,86.39
2019-03-27T07:25:29.332Z,86.35
2019-03-27T07:26:29.327Z,84.56
2019-03-27T07:27:29.392Z,82.56
2019-03-27T07:28:30.094Z,82.21
2019-03-27T07:29:29.263Z,80.81
2019-03-27T07:30:29.291Z,83.73
2019-03-27T07:31:29.936Z,82.53
2019-03-27T07:32:29.359Z,82.32
2019-03-27T07:33:29.258Z,79.61
2019-03-27T07:34:29.249Z,79.29
2019-03-27T07:35:29.229Z,76.69
2019-03-27T07:36:29.492Z,78.89
2019-03-27T07:37:29.188Z,79.88
2019-03-27T07:38:29.159Z,80.36
2019-03-27T07:39:29.161Z,80.57
2019-03-27T07:40:29.137Z,80.67
2019-03-27T07:41:29.193Z,77.28
2019-03-27T07:42:29.146Z,73.88
2019-03-27T07:43:29.111Z,73.81
2019-03-27T07:44:29.105Z,77.75
2019-03-27T07:45:29.100Z,77.28
2019-03-27T07:46:29.070Z,80.53
2019-03-27T07:47:29.088Z,76.18
2019-03-27T07:48:29.139Z,79.57
2019-03-27T07:49:29.055Z,77.55
2019-03-27T07:50:29.040Z,78.37
2019-03-27T07:51:29.022Z,77.78
2019-03-27T07:52:29.038Z,76.42
2019-03-27T07:53:29.005Z,73.88
2019-03-27T07:54:28.986Z,74.66
2019-03-27T07:55:28.974Z,73.61
2019-03-27T07:56:28.965Z,70.84
2019-03-27T07:57:29.062Z,69.78
2019-03-27T07:58:28.946Z,71.35
2019-03-27T07:59:28.948Z,73.33
2019-03-27T08:00:28.923Z,70.47
2019-03-27T08:01:28.914Z,72.14
2019-03-27T08:02:28.931Z,73.91
2019-03-27T08:03:28.890Z,73.23
2019-03-27T08:04:28.943Z,72.14
2019-03-27T08:05:28.876Z,72.41
2019-03-27T08:06:28.863Z,69.68
2019-03-27T08:07:28.917Z,67.91
2019-03-27T08:08:28.846Z,67.16
2019-03-27T08:09:28.818Z,69.81
2019-03-27T08:10:28.859Z,73.06
2019-03-27T08:11:28.911Z,74.60
2019-03-27T08:12:28.822Z,76.25
2019-03-27T08:13:28.776Z,77.69
2019-03-27T08:14:28.767Z,77.20
2019-03-27T08:15:28.755Z,73.98
2019-03-27T08:16:28.746Z,74.57
2019-03-27T08:17:28.767Z,73.81
2019-03-27T08:18:28.731Z,72.78
2019-03-27T08:19:28.718Z,66.53
2019-03-27T08:20:28.710Z,64.71
2019-03-27T08:21:31.175Z,66.72
2019-03-27T08:22:28.714Z,68.38
2019-03-27T08:23:28.671Z,71.31
2019-03-27T08:24:28.664Z,72.55
2019-03-27T08:25:28.662Z,75.18
2019-03-27T08:26:28.641Z,74.53
2019-03-27T08:27:28.656Z,75.46
2019-03-27T08:28:28.625Z,76.14
2019-03-27T08:29:28.606Z,73.47
2019-03-27T08:30:28.600Z,72.10
2019-03-27T08:31:28.575Z,68.14
2019-03-27T08:32:28.611Z,65.93
2019-03-27T08:33:28.570Z,69.24
2019-03-27T08:34:28.557Z,67.52
2019-03-27T08:35:28.540Z,69.47
2019-03-27T08:36:28.529Z,69.13
2019-03-27T08:37:28.553Z,71.80
2019-03-27T08:38:28.520Z,69.24
2019-03-27T08:39:28.549Z,65.87
2019-03-27T08:40:28.486Z,65.80
2019-03-27T08:41:28.481Z,65.80
2019-03-27T08:42:28.495Z,63.82
2019-03-27T08:43:28.458Z,58.98
2019-03-27T08:44:28.448Z,60.67
2019-03-27T08:45:28.430Z,62.52
2019-03-27T08:46:28.434Z,67.29
2019-03-27T08:47:28.520Z,69.75
2019-03-27T08:48:28.540Z,67.46
2019-03-27T08:49:28.403Z,68.52
2019-03-27T08:50:28.399Z,67.23
2019-03-27T08:51:28.374Z,65.69
2019-03-27T08:52:28.395Z,65.70
2019-03-27T08:53:28.374Z,62.88
2019-03-27T08:54:28.334Z,59.08
2019-03-27T08:55:28.338Z,54.08
2019-03-27T08:56:28.546Z,50.94
2019-03-27T08:57:28.527Z,53.78
2019-03-27T08:58:28.331Z,49.35
2019-03-27T08:59:28.299Z,49.80
2019-03-27T09:00:28.326Z,52.33
2019-03-27T09:01:28.272Z,58.23
2019-03-27T09:02:28.301Z,54.79
2019-03-27T09:03:28.258Z,52.40
2019-03-27T09:04:28.275Z,53.02
2019-03-27T09:05:28.263Z,54.05
2019-03-27T09:06:34.097Z,58.82
2019-03-27T09:07:29.243Z,58.98
2019-03-27T09:08:28.367Z,58.26
2019-03-27T09:09:28.180Z,55.48
2019-03-27T09:10:28.165Z,57.06
2019-03-27T09:11:28.175Z,52.18
2019-03-27T09:12:28.928Z,47.97
2019-03-27T09:13:28.254Z,44.66
2019-03-27T09:14:28.240Z,47.06
2019-03-27T09:15:28.119Z,48.24
2019-03-27T09:16:28.105Z,50.08
2019-03-27T09:17:28.178Z,52.40
2019-03-27T09:18:28.105Z,52.69
2019-03-27T09:19:35.569Z,52.73
2019-03-27T09:20:29.071Z,51.49
2019-03-27T09:21:28.057Z,54.57
2019-03-27T09:22:28.074Z,54.54
2019-03-27T09:23:28.027Z,55.33
2019-03-27T09:24:28.018Z,57.27
2019-03-27T09:25:28.009Z,59.23
2019-03-27T09:26:28.003Z,59.69
2019-03-27T09:27:28.159Z,55.74
2019-03-27T09:28:27.989Z,53.93
2019-03-27T09:29:27.975Z,55.71
2019-03-27T09:30:28.043Z,57.19
2019-03-27T09:31:27.959Z,58.75
2019-03-27T09:32:27.957Z,59.14
2019-03-27T09:33:27.936Z,62.80
2019-03-27T09:34:27.924Z,61.03
2019-03-27T09:35:27.915Z,58.89
2019-03-27T09:36:27.899Z,54.00
2019-03-27T09:37:27.901Z,53.06
2019-03-27T09:38:27.867Z,50.38
2019-03-27T09:39:27.853Z,49.90
2019-03-27T09:40:27.892Z,51.34
2019-03-27T09:41:27.850Z,50.45
2019-03-27T09:42:27.933Z,51.16
2019-03-27T09:43:27.818Z,52.76
2019-03-27T09:44:27.875Z,49.16
2019-03-27T09:45:27.798Z,46.87
2019-03-27T09:46:27.791Z,47.61
2019-03-27T09:47:38.825Z,45.45
2019-03-27T09:48:27.790Z,45.58
2019-03-27T09:49:27.739Z,43.62
2019-03-27T09:50:27.727Z,42.54
2019-03-27T09:51:27.711Z,43.28
2019-03-27T09:52:27.723Z,41.11
2019-03-27T09:53:27.749Z,40.62
2019-03-27T09:54:27.829Z,43.34
2019-03-27T09:55:27.685Z,44.15
2019-03-27T09:56:27.659Z,44.15
2019-03-27T09:57:27.670Z,43.69
2019-03-27T09:58:27.640Z,43.34
2019-03-27T09:59:27.641Z,47.69
2019-03-27T10:00:27.712Z,50.52
2019-03-27T10:01:27.599Z,52.98
2019-03-27T10:02:27.620Z,51.46
2019-03-27T10:03:27.587Z,48.34
2019-03-27T10:04:27.609Z,44.31
2019-03-27T10:05:27.590Z,44.51
2019-03-27T10:06:27.595Z,44.27
2019-03-27T10:07:28.541Z,43.44
2019-03-27T10:08:27.546Z,45.18
2019-03-27T10:09:27.543Z,45.45
2019-03-27T10:10:27.523Z,44.87
2019-03-27T10:11:27.514Z,44.69
2019-03-27T10:12:27.527Z,42.52
2019-03-27T10:13:27.486Z,45.16
2019-03-27T10:14:27.476Z,47.82
2019-03-27T10:15:27.463Z,51.16
2019-03-27T10:16:27.460Z,55.97
2019-03-27T10:17:27.493Z,58.70
2019-03-27T10:18:27.437Z,58.50
2019-03-27T10:19:27.433Z,59.75
2019-03-27T10:20:27.406Z,59.21
2019-03-27T10:21:27.452Z,58.60
2019-03-27T10:22:27.439Z,59.52
2019-03-27T10:23:27.420Z,57.78
2019-03-27T10:24:27.370Z,56.10
2019-03-27T10:25:27.359Z,53.19
2019-03-27T10:26:27.339Z,54.90
2019-03-27T10:27:29.826Z,53.80
2019-03-27T10:28:28.133Z,51.36
2019-03-27T10:29:27.321Z,54.39
2019-03-27T10:30:27.304Z,49.87
2019-03-27T10:31:27.374Z,49.05
2019-03-27T10:32:27.298Z,50.42
2019-03-27T10:33:27.320Z,51.14
2019-03-27T10:34:27.274Z,51.95
2019-03-27T10:35:27.439Z,50.01
2019-03-27T10:36:27.385Z,51.59
2019-03-27T10:37:27.260Z,51.16
2019-03-27T10:38:27.263Z,49.66
2019-03-27T10:39:27.215Z,52.84
2019-03-27T10:40:27.210Z,52.99
2019-03-27T10:41:27.202Z,51.29
2019-03-27T10:42:27.447Z,53.29
2019-03-27T10:43:27.165Z,53.57
2019-03-27T10:44:27.333Z,52.33
2019-03-27T10:45:27.144Z,53.80
2019-03-27T10:46:27.136Z,52.37
2019-03-27T10:47:27.251Z,51.56
2019-03-27T10:48:27.111Z,52.68
2019-03-27T10:49:27.115Z,50.01
2019-03-27T10:50:27.130Z,50.39
2019-03-27T10:51:27.105Z,52.81
2019-03-27T10:52:27.108Z,52.73
2019-03-27T10:53:27.065Z,54.74
2019-03-27T10:54:27.080Z,55.53
2019-03-27T10:55:27.038Z,51.31
2019-03-27T10:56:27.046Z,51.59
2019-03-27T10:57:27.049Z,51.36
2019-03-27T10:58:27.145Z,51.10
2019-03-27T10:59:27.036Z,51.46
2019-03-27T11:00:27.223Z,53.17
2019-03-27T11:01:26.991Z,52.17
2019-03-27T11:02:27.070Z,51.44
2019-03-27T11:03:26.960Z,50.73
2019-03-27T11:04:26.949Z,49.61
2019-03-27T11:05:26.936Z,51.56
2019-03-27T11:06:26.918Z,51.36
2019-03-27T11:07:26.954Z,51.77
2019-03-27T11:08:26.932Z,51.01
2019-03-27T11:09:27.152Z,49.97
2019-03-27T11:10:26.880Z,50.12
2019-03-27T11:11:26.869Z,49.48
2019-03-27T11:12:26.885Z,50.52
2019-03-27T11:13:26.849Z,51.81
2019-03-27T11:14:37.086Z,50.11
2019-03-27T11:15:27.838Z,51.15
2019-03-27T11:16:26.825Z,52.10
2019-03-27T11:17:26.862Z,49.79
2019-03-27T11:18:26.796Z,48.47
2019-03-27T11:19:26.790Z,49.00
2019-03-27T11:20:31.139Z,48.16
2019-03-27T11:21:26.762Z,49.26
2019-03-27T11:23:35.644Z,45.89
2019-03-27T11:24:35.608Z,47.69
2019-03-27T11:25:35.593Z,45.74
2019-03-27T11:26:35.589Z,46.41
2019-03-27T11:27:35.602Z,45.43
2019-03-27T11:28:35.575Z,46.49
2019-03-27T11:29:35.549Z,46.41
2019-03-27T11:30:35.545Z,49.02
2019-03-27T11:31:35.533Z,48.28
2019-03-27T11:32:35.548Z,49.63
2019-03-27T11:33:35.510Z,50.22
2019-03-27T11:34:35.499Z,48.27
2019-03-27T11:35:35.497Z,48.28
2019-03-27T11:36:35.480Z,49.69
2019-03-27T11:37:35.510Z,46.10
2019-03-27T11:38:37.479Z,44.52
2019-03-27T11:39:35.443Z,45.62
2019-03-27T11:40:35.450Z,47.95
2019-03-27T11:41:35.426Z,48.56
2019-03-27T11:42:35.448Z,49.68
2019-03-27T11:43:35.399Z,47.85
2019-03-27T11:44:35.392Z,49.78
2019-03-27T11:45:35.381Z,48.11
2019-03-27T11:46:35.372Z,47.90
2019-03-27T11:47:35.390Z,47.50
2019-03-27T11:48:35.350Z,45.52
2019-03-27T11:49:35.337Z,47.05
2019-03-27T11:50:44.877Z,45.68
2019-03-27T11:51:36.318Z,47.71
2019-03-27T11:52:35.339Z,46.67
2019-03-27T11:53:35.294Z,46.09
2019-03-27T11:54:35.284Z,46.64
2019-03-27T11:55:35.275Z,47.27
2019-03-27T11:56:35.262Z,47.62
2019-03-27T11:57:35.255Z,49.19
2019-03-27T11:58:35.265Z,50.36
2019-03-27T11:59:35.232Z,52.29
2019-03-27T12:00:35.225Z,49.98
2019-03-27T12:01:42.049Z,48.41
2019-03-27T12:02:36.201Z,48.27
2019-03-27T12:03:35.212Z,46.97
2019-03-27T12:04:35.171Z,45.07
2019-03-27T12:05:35.175Z,44.62
2019-03-27T12:06:35.161Z,43.18
2019-03-27T12:07:35.147Z,44.10
2019-03-27T12:08:35.154Z,44.27
2019-03-27T12:09:35.129Z,42.49
2019-03-27T12:10:35.125Z,39.26
2019-03-27T12:11:35.112Z,40.57
2019-03-27T12:12:35.087Z,41.56
2019-03-27T12:13:35.121Z,40.77
2019-03-27T12:14:35.065Z,38.95
2019-03-27T12:15:35.055Z,39.28
2019-03-27T12:16:35.059Z,37.35
2019-03-27T12:17:35.035Z,38.73
2019-03-27T12:18:35.057Z,37.11
2019-03-27T12:19:37.719Z,38.05
2019-03-27T12:20:35.011Z,35.26
2019-03-27T12:21:34.991Z,35.01
2019-03-27T12:22:34.993Z,33.12
2019-03-27T12:23:34.995Z,38.22
2019-03-27T12:24:34.969Z,39.79
2019-03-27T12:25:34.951Z,38.97
2019-03-27T12:26:34.941Z,38.69
2019-03-27T12:27:34.940Z,38.54
2019-03-27T12:28:34.945Z,41.32
2019-03-27T12:29:34.914Z,45.46
2019-03-27T12:30:34.895Z,45.19
2019-03-27T12:31:34.885Z,43.32
2019-03-27T12:32:34.876Z,44.38
2019-03-27T12:33:34.892Z,45.13
2019-03-27T12:34:36.851Z,44.24
2019-03-27T12:35:34.840Z,45.15
2019-03-27T12:36:34.828Z,42.72
2019-03-27T12:37:34.840Z,40.23
2019-03-27T12:38:34.830Z,39.37
2019-03-27T12:39:34.799Z,39.53
2019-03-27T12:40:34.785Z,37.27
2019-03-27T12:41:34.780Z,39.26
2019-03-27T12:42:34.763Z,42.15
2019-03-27T12:43:34.785Z,43.59
2019-03-27T12:44:34.743Z,43.61
2019-03-27T12:45:34.737Z,43.26
2019-03-27T12:46:34.722Z,45.09
2019-03-27T12:47:34.715Z,42.96
2019-03-27T12:48:34.729Z,38.82
2019-03-27T12:49:34.692Z,39.51
2019-03-27T12:50:34.681Z,40.21
2019-03-27T12:51:34.682Z,44.36
2019-03-27T12:52:34.650Z,47.42
2019-03-27T12:53:34.674Z,48.76